This is the latest recevied weather packets stored in our database for station/object HP1PAR-14. If no packets are shown the sender has not sent any weather packets the latest 10 day(s).
| Time | Temp. | Humidity | Pressure | Rain* | Wind** | Luminosity | Snow |
|---|---|---|---|---|---|---|---|
| 1788030242 | 23.33° C | 86% | 1010.6 hPa | 0 mm | - | - | - |
| 1788028441 | 22.78° C | 90% | 1011.9 hPa | 0 mm | - | - | - |
| 1788026641 | 22.78° C | 86% | 1012.5 hPa | 0 mm | - | - | - |
| 1788024840 | 23.33° C | 82% | 1012.5 hPa | 0 mm | - | - | - |
| 1788023040 | 23.89° C | 80% | 1012.4 hPa | 0 mm | - | - | - |
| 1788022063 | 23.89° C | 79% | 1012.5 hPa | 0 mm | - | - | - |
| 1788020262 | 24.44° C | 79% | 1013 hPa | 0 mm | - | - | - |
| 1788018462 | 23.89° C | 80% | 1013.1 hPa | 0 mm | - | - | - |
| 1788016661 | 23.33° C | 84% | 1013 hPa | 0 mm | - | - | - |
| 1788014861 | 22.22° C | 88% | 1012.9 hPa | 0 mm | - | - | - |
| 1788014002 | 21.67° C | 91% | 1012.9 hPa | 0 mm | - | - | - |
| 1788012201 | 21.11° C | 96% | 1012.8 hPa | 0 mm | - | - | - |
| 1788010401 | 20.56° C | 96% | 1012.6 hPa | 0 mm | - | - | - |
| 1788008600 | 20.56° C | 95% | 1012.2 hPa | 0 mm | - | - | - |
| 1788006800 | 20° C | 97% | 1011.5 hPa | 0 mm | - | - | - |
| 1788004999 | 19.44° C | 99% | 1011.2 hPa | 0 mm | - | - | - |
| 1788003199 | 19.44° C | 99% | 1011.7 hPa | 0 mm | - | - | - |
| 1788001398 | 18.89° C | 99% | 1012 hPa | 0 mm | - | - | - |
| 1787999598 | 19.44° C | 99% | 1010.8 hPa | 0 mm | - | - | - |
| 1787997797 | 19.44° C | 99% | 1009.6 hPa | 0 mm | - | - | - |
| 1787995997 | 19.44° C | 99% | 1010.2 hPa | 0 mm | - | - | - |
| 1787994196 | 19.44° C | 100% | 1011 hPa | 0 mm | - | - | - |
| 1787992396 | 19.44° C | 100% | 1010.8 hPa | 0 mm | - | - | - |
| 1787990596 | 19.44° C | 100% | 1010.3 hPa | 0 mm | - | - | - |
| 1787988795 | 20° C | 100% | 1009.9 hPa | 0 mm | - | - | - |
* Rain latest hour (hover to see other rain measurements)
** Current wind speed in m/s (hover to see current wind gust speed)